sensor_id;sensor_type;location;lat;lon;timestamp;pressure;altitude;pressure_sealevel;temperature;humidity
64200;BME280;50516;52.272;5.136;2024-03-17T00:01:17;102347.06;;;7.53;80.74
64200;BME280;50516;52.272;5.136;2024-03-17T00:03:43;102335.50;;;7.50;80.72
64200;BME280;50516;52.272;5.136;2024-03-17T00:06:08;102331.72;;;7.52;80.74
64200;BME280;50516;52.272;5.136;2024-03-17T00:08:34;102332.34;;;7.47;81.35
64200;BME280;50516;52.272;5.136;2024-03-17T00:10:59;102324.59;;;7.44;81.32
64200;BME280;50516;52.272;5.136;2024-03-17T00:13:25;102327.31;;;7.44;81.14
64200;BME280;50516;52.272;5.136;2024-03-17T00:15:51;102322.69;;;7.44;80.78
64200;BME280;50516;52.272;5.136;2024-03-17T00:18:17;102331.53;;;7.46;80.50
64200;BME280;50516;52.272;5.136;2024-03-17T00:20:42;102324.97;;;7.47;80.57
64200;BME280;50516;52.272;5.136;2024-03-17T00:23:09;102320.16;;;7.49;80.48
64200;BME280;50516;52.272;5.136;2024-03-17T00:25:36;102317.66;;;7.48;80.54
64200;BME280;50516;52.272;5.136;2024-03-17T00:28:02;102312.59;;;7.52;80.37
64200;BME280;50516;52.272;5.136;2024-03-17T00:30:28;102310.47;;;7.54;80.32
64200;BME280;50516;52.272;5.136;2024-03-17T00:32:53;102306.69;;;7.55;80.06
64200;BME280;50516;52.272;5.136;2024-03-17T00:35:19;102306.25;;;7.58;80.10
64200;BME280;50516;52.272;5.136;2024-03-17T00:37:47;102296.97;;;7.59;79.64
64200;BME280;50516;52.272;5.136;2024-03-17T00:40:13;102308.78;;;7.59;79.63
64200;BME280;50516;52.272;5.136;2024-03-17T00:42:39;102303.09;;;7.61;79.68
64200;BME280;50516;52.272;5.136;2024-03-17T00:45:04;102314.25;;;7.59;79.61
64200;BME280;50516;52.272;5.136;2024-03-17T00:47:31;102305.00;;;7.54;80.13
64200;BME280;50516;52.272;5.136;2024-03-17T00:49:57;102301.22;;;7.55;79.74
64200;BME280;50516;52.272;5.136;2024-03-17T00:52:22;102305.00;;;7.54;80.13
64200;BME280;50516;52.272;5.136;2024-03-17T00:54:47;102299.97;;;7.50;80.42
64200;BME280;50516;52.272;5.136;2024-03-17T00:57:13;102300.81;;;7.51;80.38
64200;BME280;50516;52.272;5.136;2024-03-17T00:59:39;102302.69;;;7.50;80.53
64200;BME280;50516;52.272;5.136;2024-03-17T01:02:04;102312.59;;;7.52;80.46
64200;BME280;50516;52.272;5.136;2024-03-17T01:04:29;102296.19;;;7.52;80.54
64200;BME280;50516;52.272;5.136;2024-03-17T01:06:59;102293.44;;;7.52;80.77
64200;BME280;50516;52.272;5.136;2024-03-17T01:09:24;102287.56;;;7.55;80.77
64200;BME280;50516;52.272;5.136;2024-03-17T01:11:49;102291.72;;;7.57;80.66
64200;BME280;50516;52.272;5.136;2024-03-17T01:14:15;102283.53;;;7.57;80.79
64200;BME280;50516;52.272;5.136;2024-03-17T01:16:40;102277.84;;;7.59;80.76
64200;BME280;50516;52.272;5.136;2024-03-17T01:19:06;102273.03;;;7.61;80.96
64200;BME280;50516;52.272;5.136;2024-03-17T01:21:31;102279.09;;;7.63;80.95
64200;BME280;50516;52.272;5.136;2024-03-17T01:23:56;102279.28;;;7.68;81.38
64200;BME280;50516;52.272;5.136;2024-03-17T01:26:22;102275.69;;;7.74;80.50
64200;BME280;50516;52.272;5.136;2024-03-17T01:28:49;102266.00;;;7.72;80.98
64200;BME280;50516;52.272;5.136;2024-03-17T01:31:14;102271.47;;;7.72;81.10
64200;BME280;50516;52.272;5.136;2024-03-17T01:33:40;102269.78;;;7.77;80.87
64200;BME280;50516;52.272;5.136;2024-03-17T01:36:05;102262.19;;;7.79;80.76
64200;BME280;50516;52.272;5.136;2024-03-17T01:38:31;102263.22;;;7.85;80.89
64200;BME280;50516;52.272;5.136;2024-03-17T01:40:58;102263.63;;;7.89;80.64
64200;BME280;50516;52.272;5.136;2024-03-17T01:43:23;102253.06;;;7.92;80.54
64200;BME280;50516;52.272;5.136;2024-03-17T01:45:48;102245.09;;;7.91;81.19
64200;BME280;50516;52.272;5.136;2024-03-17T01:48:15;102245.09;;;7.91;80.94
64200;BME280;50516;52.272;5.136;2024-03-17T01:50:42;102244.66;;;7.94;81.35
64200;BME280;50516;52.272;5.136;2024-03-17T01:53:11;102240.00;;;7.94;81.36
64200;BME280;50516;52.272;5.136;2024-03-17T01:55:39;102234.31;;;7.96;81.20
64200;BME280;50516;52.272;5.136;2024-03-17T01:58:05;102239.78;;;7.96;81.18
64200;BME280;50516;52.272;5.136;2024-03-17T02:00:36;102239.19;;;7.94;81.72
64200;BME280;50516;52.272;5.136;2024-03-17T02:03:08;102229.06;;;8.01;81.27
64200;BME280;50516;52.272;5.136;2024-03-17T02:05:38;102238.31;;;8.00;81.71
64200;BME280;50516;52.272;5.136;2024-03-17T02:08:06;102241.03;;;8.00;81.53
64200;BME280;50516;52.272;5.136;2024-03-17T02:10:33;102231.94;;;8.06;81.38
64200;BME280;50516;52.272;5.136;2024-03-17T02:12:59;102236.13;;;8.09;81.46
64200;BME280;50516;52.272;5.136;2024-03-17T02:15:25;102238.41;;;8.12;81.25
64200;BME280;50516;52.272;5.136;2024-03-17T02:17:50;102232.72;;;8.13;81.52
64200;BME280;50516;52.272;5.136;2024-03-17T02:20:15;102231.47;;;8.16;81.05
64200;BME280;50516;52.272;5.136;2024-03-17T02:22:41;102224.06;;;8.16;81.25
64200;BME280;50516;52.272;5.136;2024-03-17T02:25:06;102223.63;;;8.19;81.09
64200;BME280;50516;52.272;5.136;2024-03-17T02:27:35;102218.59;;;8.16;81.66
64200;BME280;50516;52.272;5.136;2024-03-17T02:30:01;102212.09;;;8.17;80.92
64200;BME280;50516;52.272;5.136;2024-03-17T02:32:27;102215.22;;;8.21;80.90
64200;BME280;50516;52.272;5.136;2024-03-17T02:34:53;102203.22;;;8.22;80.98
64200;BME280;50516;52.272;5.136;2024-03-17T02:37:18;102207.81;;;8.21;80.78
64200;BME280;50516;52.272;5.136;2024-03-17T02:39:44;102208.47;;;8.23;80.87
64200;BME280;50516;52.272;5.136;2024-03-17T02:42:10;102206.56;;;8.24;81.11
64200;BME280;50516;52.272;5.136;2024-03-17T02:44:37;102203.38;;;8.27;80.51
64200;BME280;50516;52.272;5.136;2024-03-17T02:47:04;102201.69;;;8.26;80.74
64200;BME280;50516;52.272;5.136;2024-03-17T02:49:31;102201.47;;;8.28;80.74
64200;BME280;50516;52.272;5.136;2024-03-17T02:52:05;102197.69;;;8.29;79.92
64200;BME280;50516;52.272;5.136;2024-03-17T02:54:31;102196.59;;;8.30;80.40
64200;BME280;50516;52.272;5.136;2024-03-17T02:56:57;102196.78;;;8.35;80.43
64200;BME280;50516;52.272;5.136;2024-03-17T02:59:22;102189.63;;;8.34;80.27
64200;BME280;50516;52.272;5.136;2024-03-17T03:01:48;102200.81;;;8.32;80.00
64200;BME280;50516;52.272;5.136;2024-03-17T03:04:13;102205.03;;;8.28;79.65
64200;BME280;50516;52.272;5.136;2024-03-17T03:06:38;102202.25;;;8.35;80.11
64200;BME280;50516;52.272;5.136;2024-03-17T03:09:04;102200.56;;;8.34;80.02
64200;BME280;50516;52.272;5.136;2024-03-17T03:11:37;102198.81;;;8.39;80.55
64200;BME280;50516;52.272;5.136;2024-03-17T03:14:02;102196.72;;;8.41;79.99
64200;BME280;50516;52.272;5.136;2024-03-17T03:16:28;102199.69;;;8.40;80.06
64200;BME280;50516;52.272;5.136;2024-03-17T03:18:53;102203.66;;;8.44;80.21
64200;BME280;50516;52.272;5.136;2024-03-17T03:21:19;102199.88;;;8.45;79.95
64200;BME280;50516;52.272;5.136;2024-03-17T03:23:44;102205.97;;;8.47;79.80
64200;BME280;50516;52.272;5.136;2024-03-17T03:26:10;102189.31;;;8.49;80.06
64200;BME280;50516;52.272;5.136;2024-03-17T03:28:35;102198.81;;;8.46;80.43
64200;BME280;50516;52.272;5.136;2024-03-17T03:31:01;102195.00;;;8.47;79.67
64200;BME280;50516;52.272;5.136;2024-03-17T03:33:27;102192.88;;;8.49;80.00
64200;BME280;50516;52.272;5.136;2024-03-17T03:35:53;102186.34;;;8.50;80.21
64200;BME280;50516;52.272;5.136;2024-03-17T03:38:18;102181.47;;;8.52;79.92
64200;BME280;50516;52.272;5.136;2024-03-17T03:40:44;102178.97;;;8.51;80.29
64200;BME280;50516;52.272;5.136;2024-03-17T03:43:10;102180.88;;;8.50;79.80
64200;BME280;50516;52.272;5.136;2024-03-17T03:45:36;102167.03;;;8.45;80.07
64200;BME280;50516;52.272;5.136;2024-03-17T03:48:02;102168.88;;;8.51;80.44
64200;BME280;50516;52.272;5.136;2024-03-17T03:50:28;102175.56;;;8.55;80.30
64200;BME280;50516;52.272;5.136;2024-03-17T03:52:53;102162.53;;;8.51;80.20
64200;BME280;50516;52.272;5.136;2024-03-17T03:55:19;102158.38;;;8.48;80.12
64200;BME280;50516;52.272;5.136;2024-03-17T03:57:45;102156.69;;;8.47;80.38
64200;BME280;50516;52.272;5.136;2024-03-17T04:00:16;102150.16;;;8.48;80.83
64200;BME280;50516;52.272;5.136;2024-03-17T04:02:44;102149.94;;;8.50;80.63
64200;BME280;50516;52.272;5.136;2024-03-17T04:05:10;102139.88;;;8.44;80.43
64200;BME280;50516;52.272;5.136;2024-03-17T04:07:36;102132.31;;;8.39;80.93
64200;BME280;50516;52.272;5.136;2024-03-17T04:10:02;102122.91;;;8.35;80.99
64200;BME280;50516;52.272;5.136;2024-03-17T04:12:28;102119.97;;;8.30;81.41
64200;BME280;50516;52.272;5.136;2024-03-17T04:14:59;102127.28;;;8.36;81.21
64200;BME280;50516;52.272;5.136;2024-03-17T04:17:25;102121.81;;;8.36;81.03
64200;BME280;50516;52.272;5.136;2024-03-17T04:19:51;102129.81;;;8.37;81.59
64200;BME280;50516;52.272;5.136;2024-03-17T04:22:17;102116.34;;;8.36;81.52
64200;BME280;50516;52.272;5.136;2024-03-17T04:24:43;102124.34;;;8.37;81.54
64200;BME280;50516;52.272;5.136;2024-03-17T04:27:09;102121.81;;;8.36;81.64
64200;BME280;50516;52.272;5.136;2024-03-17T04:29:34;102107.53;;;8.34;81.36
64200;BME280;50516;52.272;5.136;2024-03-17T04:32:00;102104.41;;;8.30;81.66
64200;BME280;50516;52.272;5.136;2024-03-17T04:34:26;102104.78;;;8.34;81.91
64200;BME280;50516;52.272;5.136;2024-03-17T04:36:52;102104.19;;;8.32;81.49
64200;BME280;50516;52.272;5.136;2024-03-17T04:39:18;102104.19;;;8.32;82.02
64200;BME280;50516;52.272;5.136;2024-03-17T04:41:45;102108.34;;;8.34;81.85
64200;BME280;50516;52.272;5.136;2024-03-17T04:44:10;102113.44;;;8.31;82.21
64200;BME280;50516;52.272;5.136;2024-03-17T04:46:35;102120.63;;;8.32;82.18
64200;BME280;50516;52.272;5.136;2024-03-17T04:49:01;102122.28;;;8.33;82.40
64200;BME280;50516;52.272;5.136;2024-03-17T04:51:28;102123.13;;;8.33;81.97
64200;BME280;50516;52.272;5.136;2024-03-17T04:53:54;102114.50;;;8.30;82.40
64200;BME280;50516;52.272;5.136;2024-03-17T04:56:19;102110.56;;;8.26;82.73
64200;BME280;50516;52.272;5.136;2024-03-17T04:58:44;102113.16;;;8.20;82.98
64200;BME280;50516;52.272;5.136;2024-03-17T05:01:09;102115.19;;;8.25;82.78
64200;BME280;50516;52.272;5.136;2024-03-17T05:03:35;102112.22;;;8.27;83.02
64200;BME280;50516;52.272;5.136;2024-03-17T05:06:02;102107.16;;;8.30;82.93
64200;BME280;50516;52.272;5.136;2024-03-17T05:08:28;102104.00;;;8.27;83.10
64200;BME280;50516;52.272;5.136;2024-03-17T05:13:23;102099.16;;;8.29;82.70
64200;BME280;50516;52.272;5.136;2024-03-17T05:15:48;102104.00;;;8.27;83.00
64200;BME280;50516;52.272;5.136;2024-03-17T05:18:13;102103.78;;;8.28;83.06
64200;BME280;50516;52.272;5.136;2024-03-17T05:20:39;102103.78;;;8.28;82.54
64200;BME280;50516;52.272;5.136;2024-03-17T05:23:04;102103.84;;;8.21;82.83
64200;BME280;50516;52.272;5.136;2024-03-17T05:25:29;102109.03;;;8.30;82.79
64200;BME280;50516;52.272;5.136;2024-03-17T05:27:55;102099.03;;;8.23;82.87
64200;BME280;50516;52.272;5.136;2024-03-17T05:30:20;102092.47;;;8.25;82.68
64200;BME280;50516;52.272;5.136;2024-03-17T05:32:45;102096.09;;;8.18;82.39
64200;BME280;50516;52.272;5.136;2024-03-17T05:35:10;102092.31;;;8.19;82.48
64200;BME280;50516;52.272;5.136;2024-03-17T05:37:36;102082.88;;;8.15;82.63
64200;BME280;50516;52.272;5.136;2024-03-17T05:40:01;102091.25;;;8.20;82.60
64200;BME280;50516;52.272;5.136;2024-03-17T05:42:27;102089.34;;;8.21;82.49
64200;BME280;50516;52.272;5.136;2024-03-17T05:44:53;102099.03;;;8.23;82.32
64200;BME280;50516;52.272;5.136;2024-03-17T05:47:18;102102.34;;;8.26;82.17
64200;BME280;50516;52.272;5.136;2024-03-17T05:49:44;102100.53;;;8.19;81.96
64200;BME280;50516;52.272;5.136;2024-03-17T05:52:10;102098.75;;;8.25;81.99
64200;BME280;50516;52.272;5.136;2024-03-17T05:54:36;102100.28;;;8.21;82.48
64200;BME280;50516;52.272;5.136;2024-03-17T05:57:02;102096.28;;;8.23;82.09
64200;BME280;50516;52.272;5.136;2024-03-17T05:59:29;102098.94;;;8.30;81.86
64200;BME280;50516;52.272;5.136;2024-03-17T06:01:56;102097.19;;;8.36;81.75
64200;BME280;50516;52.272;5.136;2024-03-17T06:04:21;102101.84;;;8.35;81.34
64200;BME280;50516;52.272;5.136;2024-03-17T06:06:46;102100.50;;;8.45;81.18
64200;BME280;50516;52.272;5.136;2024-03-17T06:09:13;102104.00;;;8.52;81.16
64200;BME280;50516;52.272;5.136;2024-03-17T06:11:42;102099.03;;;8.61;81.05
64200;BME280;50516;52.272;5.136;2024-03-17T06:14:08;102096.72;;;8.64;80.72
64200;BME280;50516;52.272;5.136;2024-03-17T06:16:36;102095.78;;;8.70;79.93
64200;BME280;50516;52.272;5.136;2024-03-17T06:19:02;102099.06;;;8.79;80.31
64200;BME280;50516;52.272;5.136;2024-03-17T06:21:28;102100.25;;;8.83;80.08
64200;BME280;50516;52.272;5.136;2024-03-17T06:23:53;102101.38;;;8.94;79.44
64200;BME280;50516;52.272;5.136;2024-03-17T06:26:19;102094.16;;;9.00;79.24
64200;BME280;50516;52.272;5.136;2024-03-17T06:28:45;102102.16;;;9.01;79.23
64200;BME280;50516;52.272;5.136;2024-03-17T06:31:11;102096.59;;;9.08;79.32
64200;BME280;50516;52.272;5.136;2024-03-17T06:33:36;102102.66;;;9.10;79.15
64200;BME280;50516;52.272;5.136;2024-03-17T06:36:05;102107.22;;;9.16;79.20
64200;BME280;50516;52.272;5.136;2024-03-17T06:38:31;102106.75;;;9.19;78.80
64200;BME280;50516;52.272;5.136;2024-03-17T06:40:57;102104.16;;;9.24;78.67
64200;BME280;50516;52.272;5.136;2024-03-17T06:43:22;102108.94;;;9.29;78.98
64200;BME280;50516;52.272;5.136;2024-03-17T06:45:57;102107.63;;;9.31;78.80
64200;BME280;50516;52.272;5.136;2024-03-17T06:48:24;102106.31;;;9.34;78.27
64200;BME280;50516;52.272;5.136;2024-03-17T06:50:51;102088.81;;;9.35;78.52
64200;BME280;50516;52.272;5.136;2024-03-17T06:53:20;102088.59;;;9.37;78.51
64200;BME280;50516;52.272;5.136;2024-03-17T06:55:55;102086.22;;;9.40;78.31
64200;BME280;50516;52.272;5.136;2024-03-17T06:58:25;102082.78;;;9.45;78.42
64200;BME280;50516;52.272;5.136;2024-03-17T07:01:10;102092.66;;;9.46;78.60
64200;BME280;50516;52.272;5.136;2024-03-17T07:03:35;102092.28;;;9.42;78.65
64200;BME280;50516;52.272;5.136;2024-03-17T07:06:02;102092.06;;;9.44;78.18
64200;BME280;50516;52.272;5.136;2024-03-17T07:08:29;102097.66;;;9.49;77.99
64200;BME280;50516;52.272;5.136;2024-03-17T07:11:05;102091.72;;;9.52;78.17
64200;BME280;50516;52.272;5.136;2024-03-17T07:13:33;102099.13;;;9.52;78.11
64200;BME280;50516;52.272;5.136;2024-03-17T07:16:03;102104.50;;;9.58;78.73
64200;BME280;50516;52.272;5.136;2024-03-17T07:18:29;102103.19;;;9.61;78.23
64200;BME280;50516;52.272;5.136;2024-03-17T07:20:58;102105.09;;;9.60;78.00
64200;BME280;50516;52.272;5.136;2024-03-17T07:23:24;102111.31;;;9.67;77.95
64200;BME280;50516;52.272;5.136;2024-03-17T07:25:57;102100.34;;;9.67;77.86
64200;BME280;50516;52.272;5.136;2024-03-17T07:28:23;102099.31;;;9.80;77.81
64200;BME280;50516;52.272;5.136;2024-03-17T07:30:52;102089.75;;;9.83;77.71
64200;BME280;50516;52.272;5.136;2024-03-17T07:33:19;102087.84;;;9.95;77.72
64200;BME280;50516;52.272;5.136;2024-03-17T07:35:53;102091.78;;;9.99;77.26
64200;BME280;50516;52.272;5.136;2024-03-17T07:38:20;102096.44;;;9.99;77.31
64200;BME280;50516;52.272;5.136;2024-03-17T07:40:56;102089.06;;;10.11;77.13
64200;BME280;50516;52.272;5.136;2024-03-17T07:43:22;102085.59;;;10.16;76.98
64200;BME280;50516;52.272;5.136;2024-03-17T07:45:47;102091.31;;;10.26;76.41
64200;BME280;50516;52.272;5.136;2024-03-17T07:48:13;102094.56;;;10.35;76.29
64200;BME280;50516;52.272;5.136;2024-03-17T07:50:38;102083.34;;;10.48;75.97
64200;BME280;50516;52.272;5.136;2024-03-17T07:53:04;102080.19;;;10.68;75.91
64200;BME280;50516;52.272;5.136;2024-03-17T07:55:29;102075.97;;;10.77;75.01
64200;BME280;50516;52.272;5.136;2024-03-17T07:57:56;102079.41;;;10.85;75.31
64200;BME280;50516;52.272;5.136;2024-03-17T08:00:21;102087.16;;;10.88;74.97
64200;BME280;50516;52.272;5.136;2024-03-17T08:02:47;102077.47;;;10.97;74.84
64200;BME280;50516;52.272;5.136;2024-03-17T08:05:13;102077.38;;;10.92;74.79
64200;BME280;50516;52.272;5.136;2024-03-17T08:07:39;102077.00;;;10.88;74.92
64200;BME280;50516;52.272;5.136;2024-03-17T08:10:05;102077.38;;;10.92;74.81
64200;BME280;50516;52.272;5.136;2024-03-17T08:12:30;102073.75;;;10.91;74.98
64200;BME280;50516;52.272;5.136;2024-03-17T08:14:56;102076.72;;;11.02;74.90
64200;BME280;50516;52.272;5.136;2024-03-17T08:17:21;102074.47;;;10.99;74.58
64200;BME280;50516;52.272;5.136;2024-03-17T08:19:46;102060.00;;;11.03;74.47
64200;BME280;50516;52.272;5.136;2024-03-17T08:22:13;102073.25;;;11.06;74.69
64200;BME280;50516;52.272;5.136;2024-03-17T08:24:38;102068.91;;;11.10;74.68
64200;BME280;50516;52.272;5.136;2024-03-17T08:27:04;102072.94;;;11.20;74.72
64200;BME280;50516;52.272;5.136;2024-03-17T08:29:29;102072.66;;;11.50;74.27
64200;BME280;50516;52.272;5.136;2024-03-17T08:31:54;102067.50;;;11.70;73.15
64200;BME280;50516;52.272;5.136;2024-03-17T08:34:20;102071.19;;;11.76;73.07
64200;BME280;50516;52.272;5.136;2024-03-17T08:36:45;102077.88;;;11.97;72.76
64200;BME280;50516;52.272;5.136;2024-03-17T08:39:11;102084.91;;;12.27;71.76
64200;BME280;50516;52.272;5.136;2024-03-17T08:41:36;102089.34;;;12.28;72.32
64200;BME280;50516;52.272;5.136;2024-03-17T08:44:02;102089.34;;;12.28;72.25
64200;BME280;50516;52.272;5.136;2024-03-17T08:46:27;102094.16;;;12.38;71.31
64200;BME280;50516;52.272;5.136;2024-03-17T08:48:52;102088.84;;;12.31;72.44
64200;BME280;50516;52.272;5.136;2024-03-17T08:51:18;102088.13;;;12.41;71.50
64200;BME280;50516;52.272;5.136;2024-03-17T08:53:43;102082.06;;;12.39;71.30
64200;BME280;50516;52.272;5.136;2024-03-17T08:56:08;102078.81;;;12.42;71.19
64200;BME280;50516;52.272;5.136;2024-03-17T08:58:34;102078.28;;;12.45;71.73
64200;BME280;50516;52.272;5.136;2024-03-17T09:01:03;102078.41;;;12.55;71.50
64200;BME280;50516;52.272;5.136;2024-03-17T09:03:29;102077.25;;;12.51;71.55
64200;BME280;50516;52.272;5.136;2024-03-17T09:05:55;102074.44;;;12.46;71.80
64200;BME280;50516;52.272;5.136;2024-03-17T09:08:22;102070.66;;;12.52;71.58
64200;BME280;50516;52.272;5.136;2024-03-17T09:10:52;102065.84;;;12.42;71.83
64200;BME280;50516;52.272;5.136;2024-03-17T09:13:20;102075.84;;;12.49;72.10
64200;BME280;50516;52.272;5.136;2024-03-17T09:16:01;102066.22;;;12.51;71.36
64200;BME280;50516;52.272;5.136;2024-03-17T09:18:33;102071.38;;;12.65;71.56
64200;BME280;50516;52.272;5.136;2024-03-17T09:21:00;102077.41;;;12.62;71.67
64200;BME280;50516;52.272;5.136;2024-03-17T09:23:26;102076.75;;;12.54;71.51
64200;BME280;50516;52.272;5.136;2024-03-17T09:26:01;102073.03;;;12.66;71.27
64200;BME280;50516;52.272;5.136;2024-03-17T09:28:28;102065.72;;;12.54;71.62
64200;BME280;50516;52.272;5.136;2024-03-17T09:30:54;102068.63;;;12.65;71.67
64200;BME280;50516;52.272;5.136;2024-03-17T09:33:21;102059.75;;;12.85;71.66
64200;BME280;50516;52.272;5.136;2024-03-17T09:36:01;102063.78;;;12.99;70.99
64200;BME280;50516;52.272;5.136;2024-03-17T09:38:27;102059.78;;;13.12;70.86
64200;BME280;50516;52.272;5.136;2024-03-17T09:40:53;102061.63;;;13.06;70.52
64200;BME280;50516;52.272;5.136;2024-03-17T09:43:22;102052.66;;;13.16;70.65
64200;BME280;50516;52.272;5.136;2024-03-17T09:45:49;102052.81;;;13.31;70.08
64200;BME280;50516;52.272;5.136;2024-03-17T09:48:16;102048.47;;;13.36;69.70
64200;BME280;50516;52.272;5.136;2024-03-17T09:50:55;102041.88;;;13.42;69.73
64200;BME280;50516;52.272;5.136;2024-03-17T09:53:28;102053.06;;;13.57;69.35
64200;BME280;50516;52.272;5.136;2024-03-17T09:56:08;102049.00;;;13.65;69.35
64200;BME280;50516;52.272;5.136;2024-03-17T09:58:34;102047.69;;;13.73;68.75
64200;BME280;50516;52.272;5.136;2024-03-17T10:01:00;102041.09;;;13.79;68.54
64200;BME280;50516;52.272;5.136;2024-03-17T10:03:48;102045.59;;;13.90;68.88
64200;BME280;50516;52.272;5.136;2024-03-17T10:06:20;102044.00;;;13.99;67.24
64200;BME280;50516;52.272;5.136;2024-03-17T10:08:48;102045.41;;;14.02;68.35
64200;BME280;50516;52.272;5.136;2024-03-17T10:11:15;102047.47;;;14.27;67.56
64200;BME280;50516;52.272;5.136;2024-03-17T10:13:45;102045.06;;;14.41;66.95
64200;BME280;50516;52.272;5.136;2024-03-17T10:16:21;102029.59;;;14.45;66.67
64200;BME280;50516;52.272;5.136;2024-03-17T10:18:48;102022.16;;;14.46;66.43
64200;BME280;50516;52.272;5.136;2024-03-17T10:21:25;102033.03;;;14.63;66.11
64200;BME280;50516;52.272;5.136;2024-03-17T10:24:08;102031.69;;;14.70;65.79
64200;BME280;50516;52.272;5.136;2024-03-17T10:26:44;102032.53;;;14.76;65.57
64200;BME280;50516;52.272;5.136;2024-03-17T10:29:32;102030.63;;;14.87;65.39
64200;BME280;50516;52.272;5.136;2024-03-17T10:32:05;102024.00;;;14.98;65.67
64200;BME280;50516;52.272;5.136;2024-03-17T10:34:38;102019.56;;;14.92;65.02
64200;BME280;50516;52.272;5.136;2024-03-17T10:37:17;102023.19;;;14.92;65.39
64200;BME280;50516;52.272;5.136;2024-03-17T10:39:46;102020.69;;;14.86;65.49
64200;BME280;50516;52.272;5.136;2024-03-17T10:42:13;102024.00;;;14.98;65.39
64200;BME280;50516;52.272;5.136;2024-03-17T10:44:42;102025.97;;;15.03;64.52
64200;BME280;50516;52.272;5.136;2024-03-17T10:47:24;102019.06;;;15.05;65.48
64200;BME280;50516;52.272;5.136;2024-03-17T10:49:51;102020.69;;;15.11;64.97
64200;BME280;50516;52.272;5.136;2024-03-17T10:52:18;102015.16;;;15.11;64.98
64200;BME280;50516;52.272;5.136;2024-03-17T10:54:48;102014.09;;;15.28;64.66
64200;BME280;50516;52.272;5.136;2024-03-17T10:57:45;102005.78;;;15.38;63.98
64200;BME280;50516;52.272;5.136;2024-03-17T11:00:13;102003.31;;;15.57;64.20
64200;BME280;50516;52.272;5.136;2024-03-17T11:02:43;101996.66;;;15.58;63.95
64200;BME280;50516;52.272;5.136;2024-03-17T11:05:17;101991.66;;;15.70;63.10
64200;BME280;50516;52.272;5.136;2024-03-17T11:07:45;101992.78;;;15.75;63.04
64200;BME280;50516;52.272;5.136;2024-03-17T11:12:45;101990.00;;;15.75;62.51
64200;BME280;50516;52.272;5.136;2024-03-17T11:17:47;101988.56;;;16.03;62.21
64200;BME280;50516;52.272;5.136;2024-03-17T11:20:20;101983.03;;;16.03;62.48
64200;BME280;50516;52.272;5.136;2024-03-17T11:22:49;101983.84;;;16.14;62.54
64200;BME280;50516;52.272;5.136;2024-03-17T11:27:52;101975.84;;;16.02;61.66
64200;BME280;50516;52.272;5.136;2024-03-17T11:39:04;101973.66;;;15.73;64.10
64200;BME280;50516;52.272;5.136;2024-03-17T11:42:05;101970.38;;;15.35;64.15
64200;BME280;50516;52.272;5.136;2024-03-17T11:44:36;101975.09;;;15.29;64.93
64200;BME280;50516;52.272;5.136;2024-03-17T11:47:05;101970.38;;;15.30;65.46
64200;BME280;50516;52.272;5.136;2024-03-17T11:49:38;101974.22;;;15.55;64.49
64200;BME280;50516;52.272;5.136;2024-03-17T11:52:09;101973.09;;;15.66;64.79
64200;BME280;50516;52.272;5.136;2024-03-17T11:54:39;101968.94;;;15.84;64.64
64200;BME280;50516;52.272;5.136;2024-03-17T11:57:10;101967.84;;;15.75;64.82
64200;BME280;50516;52.272;5.136;2024-03-17T11:59:36;101960.38;;;15.85;65.17
64200;BME280;50516;52.272;5.136;2024-03-17T12:02:17;101968.66;;;16.01;65.02
64200;BME280;50516;52.272;5.136;2024-03-17T12:04:43;101963.91;;;16.01;65.22
64200;BME280;50516;52.272;5.136;2024-03-17T12:07:12;101958.63;;;16.05;64.93
64200;BME280;50516;52.272;5.136;2024-03-17T12:09:41;101960.34;;;16.01;65.23
64200;BME280;50516;52.272;5.136;2024-03-17T12:12:14;101951.47;;;16.04;65.69
64200;BME280;50516;52.272;5.136;2024-03-17T12:14:41;101951.19;;;15.95;65.50
64200;BME280;50516;52.272;5.136;2024-03-17T12:17:08;101948.97;;;16.02;65.22
64200;BME280;50516;52.272;5.136;2024-03-17T12:19:34;101943.69;;;16.06;65.30
64200;BME280;50516;52.272;5.136;2024-03-17T12:22:01;101943.03;;;16.30;65.06
64200;BME280;50516;52.272;5.136;2024-03-17T12:24:31;101936.06;;;16.37;65.35
64200;BME280;50516;52.272;5.136;2024-03-17T12:26:57;101933.00;;;16.39;65.14
64200;BME280;50516;52.272;5.136;2024-03-17T12:29:36;101931.34;;;16.43;64.82
64200;BME280;50516;52.272;5.136;2024-03-17T12:32:04;101924.72;;;16.34;65.34
64200;BME280;50516;52.272;5.136;2024-03-17T12:34:33;101923.59;;;16.40;65.44
64200;BME280;50516;52.272;5.136;2024-03-17T12:37:02;101928.03;;;16.41;65.34
64200;BME280;50516;52.272;5.136;2024-03-17T12:39:33;101919.47;;;16.32;65.22
64200;BME280;50516;52.272;5.136;2024-03-17T12:42:08;101914.81;;;16.17;65.16
64200;BME280;50516;52.272;5.136;2024-03-17T12:44:58;101914.63;;;15.98;66.20
64200;BME280;50516;52.272;5.136;2024-03-17T12:47:27;101915.19;;;15.95;66.27
64200;BME280;50516;52.272;5.136;2024-03-17T12:49:59;101905.47;;;16.03;66.13
64200;BME280;50516;52.272;5.136;2024-03-17T12:52:26;101910.41;;;16.11;65.80
64200;BME280;50516;52.272;5.136;2024-03-17T12:55:08;101901.66;;;15.83;66.73
64200;BME280;50516;52.272;5.136;2024-03-17T13:03:28;101896.22;;;15.32;68.55
64200;BME280;50516;52.272;5.136;2024-03-17T13:05:54;101898.19;;;15.21;68.87
64200;BME280;50516;52.272;5.136;2024-03-17T13:08:19;101894.88;;;14.99;69.99
64200;BME280;50516;52.272;5.136;2024-03-17T13:10:46;101899.00;;;14.96;69.74
64200;BME280;50516;52.272;5.136;2024-03-17T13:13:12;101882.41;;;15.06;70.62
64200;BME280;50516;52.272;5.136;2024-03-17T13:15:41;101887.13;;;15.06;71.01
64200;BME280;50516;52.272;5.136;2024-03-17T13:18:07;101886.00;;;15.12;70.51
64200;BME280;50516;52.272;5.136;2024-03-17T13:20:33;101887.38;;;15.04;70.13
64200;BME280;50516;52.272;5.136;2024-03-17T13:22:59;101874.63;;;15.29;69.50